createdAt,value
2018-06-19T03:01:12.428Z,116.00
2018-06-19T03:02:13.296Z,124.00
2018-06-19T03:03:12.709Z,132.00
2018-06-19T03:04:12.612Z,140.00
2018-06-19T03:05:12.688Z,152.00
2018-06-19T03:06:14.507Z,160.00
2018-06-19T03:07:13.249Z,172.00
2018-06-19T03:08:13.435Z,176.00
2018-06-19T03:09:13.513Z,184.00
2018-06-19T03:10:14.072Z,188.00
2018-06-19T03:11:13.937Z,200.00
2018-06-19T03:12:11.666Z,216.00
2018-06-19T03:13:14.756Z,244.00
2018-06-19T03:14:14.458Z,268.00
2018-06-19T03:15:14.650Z,296.00
2018-06-19T03:16:15.499Z,324.00
2018-06-19T03:17:15.209Z,356.00
2018-06-19T03:18:15.001Z,380.00
2018-06-19T03:19:14.882Z,404.00
2018-06-19T03:20:15.363Z,432.00
2018-06-19T03:21:16.512Z,456.00
2018-06-19T03:22:16.180Z,480.00
2018-06-19T03:23:15.747Z,504.00
2018-06-19T03:24:16.196Z,524.00
2018-06-19T03:25:16.611Z,544.00
2018-06-19T03:26:16.482Z,556.00
2018-06-19T03:27:16.788Z,568.00
2018-06-19T03:28:16.121Z,572.00
2018-06-19T03:29:14.359Z,572.00
2018-06-19T03:30:14.743Z,560.00
2018-06-19T03:31:14.635Z,540.00
2018-06-19T03:32:15.080Z,536.00
2018-06-19T03:33:15.225Z,556.00
2018-06-19T03:34:15.307Z,572.00
2018-06-19T03:35:15.678Z,604.00
2018-06-19T03:36:15.755Z,644.00
2018-06-19T03:37:15.942Z,680.00
2018-06-19T03:38:16.028Z,700.00
2018-06-19T03:39:16.311Z,728.00
2018-06-19T03:40:16.415Z,736.00
2018-06-19T03:41:16.575Z,716.00
2018-06-19T03:42:16.642Z,688.00
2018-06-19T03:43:16.873Z,652.00
2018-06-19T03:44:17.075Z,664.00
2018-06-19T03:45:17.263Z,688.00
2018-06-19T03:46:17.415Z,720.00
2018-06-19T03:47:17.729Z,756.00
2018-06-19T03:48:17.952Z,796.00
2018-06-19T03:49:18.038Z,840.00
2018-06-19T03:50:18.117Z,884.00
2018-06-19T03:51:18.256Z,912.00
2018-06-19T03:52:18.505Z,920.00
2018-06-19T03:53:18.690Z,960.00
2018-06-19T03:54:18.818Z,1048.00
2018-06-19T03:55:19.027Z,1128.00
2018-06-19T03:56:19.142Z,1188.00
2018-06-19T03:57:19.322Z,1256.00
2018-06-19T03:58:19.471Z,1344.00
2018-06-19T03:59:19.656Z,1340.00
2018-06-19T04:00:19.884Z,1316.00
2018-06-19T04:01:20.059Z,1344.00
2018-06-19T04:02:20.156Z,1380.00
2018-06-19T04:03:20.280Z,1416.00
2018-06-19T04:04:20.457Z,1420.00
2018-06-19T04:05:20.619Z,1444.00
2018-06-19T04:06:20.875Z,1488.00
2018-06-19T04:07:20.989Z,1536.00
2018-06-19T04:08:21.221Z,1584.00
2018-06-19T04:09:21.407Z,1640.00
2018-06-19T04:10:21.650Z,1688.00
2018-06-19T04:11:21.781Z,1732.00
2018-06-19T04:12:21.982Z,1764.00
2018-06-19T04:13:22.161Z,1800.00
2018-06-19T04:14:22.356Z,1840.00
2018-06-19T04:15:22.527Z,1876.00
2018-06-19T04:16:22.730Z,1904.00
2018-06-19T04:17:22.901Z,1932.00
2018-06-19T04:18:22.948Z,1952.00
2018-06-19T04:19:23.153Z,1968.00
2018-06-19T04:20:23.392Z,1984.00
2018-06-19T04:21:23.510Z,1996.00
2018-06-19T04:22:23.754Z,2016.00
2018-06-19T04:23:23.867Z,2036.00
2018-06-19T04:24:23.982Z,2064.00
2018-06-19T04:25:24.111Z,2088.00
2018-06-19T04:26:24.534Z,2116.00
2018-06-19T04:27:24.610Z,2128.00
2018-06-19T04:28:24.710Z,2136.00
2018-06-19T04:29:24.933Z,2140.00
2018-06-19T04:30:25.078Z,2124.00
2018-06-19T04:31:25.217Z,2128.00
2018-06-19T04:32:25.522Z,2140.00
2018-06-19T04:33:25.715Z,2144.00
2018-06-19T04:34:25.824Z,2152.00
2018-06-19T04:35:26.016Z,2176.00
2018-06-19T04:36:26.341Z,2188.00
2018-06-19T04:37:26.384Z,2200.00
2018-06-19T04:38:26.649Z,2212.00
2018-06-19T04:39:26.865Z,2224.00
2018-06-19T04:40:26.976Z,2244.00
2018-06-19T04:41:27.059Z,2260.00
2018-06-19T04:42:27.516Z,2280.00
2018-06-19T04:43:27.571Z,2292.00
2018-06-19T04:44:27.625Z,2324.00
2018-06-19T04:45:27.840Z,2344.00
2018-06-19T04:46:27.982Z,2360.00
2018-06-19T04:47:28.072Z,2372.00
2018-06-19T04:48:28.479Z,2356.00
2018-06-19T04:49:28.495Z,2352.00
2018-06-19T04:50:28.615Z,2364.00
2018-06-19T04:51:28.768Z,2364.00
2018-06-19T04:52:28.996Z,2364.00
2018-06-19T04:53:29.157Z,2376.00
2018-06-19T04:54:29.335Z,2388.00
2018-06-19T04:55:29.528Z,2392.00
2018-06-19T04:56:29.765Z,2392.00
2018-06-19T04:57:29.902Z,2404.00
2018-06-19T04:58:30.124Z,2412.00
2018-06-19T04:59:30.352Z,2424.00
2018-06-19T05:00:30.358Z,2448.00
2018-06-19T05:01:30.522Z,2464.00
2018-06-19T05:02:30.827Z,2480.00
2018-06-19T05:03:30.981Z,2480.00
2018-06-19T05:04:31.190Z,2444.00
2018-06-19T05:05:31.333Z,2504.00
2018-06-19T05:06:31.750Z,2520.00
2018-06-19T05:07:31.682Z,2540.00
2018-06-19T05:08:32.012Z,2556.00
2018-06-19T05:09:32.093Z,2596.00
2018-06-19T05:10:32.239Z,2624.00
2018-06-19T05:11:32.401Z,2664.00
2018-06-19T05:12:32.688Z,2696.00
2018-06-19T05:13:32.741Z,2732.00
2018-06-19T05:14:33.014Z,2764.00
2018-06-19T05:15:33.239Z,2808.00
2018-06-19T05:16:33.363Z,2884.00
2018-06-19T05:17:33.513Z,2920.00
2018-06-19T05:18:33.610Z,2948.00
2018-06-19T05:19:33.851Z,2948.00
2018-06-19T05:20:33.944Z,2996.00
2018-06-19T05:21:34.181Z,2984.00
2018-06-19T05:22:34.357Z,2964.00
2018-06-19T05:23:34.576Z,2920.00
2018-06-19T05:24:34.715Z,2952.00
2018-06-19T05:25:34.861Z,2968.00
2018-06-19T05:26:35.091Z,3032.00
2018-06-19T05:27:35.241Z,3056.00
2018-06-19T05:28:35.451Z,3064.00
2018-06-19T05:29:36.274Z,3084.00
2018-06-19T05:30:35.795Z,3100.00
2018-06-19T05:31:35.938Z,3108.00
2018-06-19T05:32:36.154Z,3124.00
2018-06-19T05:33:36.237Z,3132.00
2018-06-19T05:34:36.456Z,3144.00
2018-06-19T05:35:36.590Z,3160.00
2018-06-19T05:36:36.855Z,3172.00
2018-06-19T05:37:37.037Z,3168.00
2018-06-19T05:38:37.245Z,3208.00
2018-06-19T05:39:37.376Z,3228.00
2018-06-19T05:40:37.563Z,3252.00
2018-06-19T05:41:37.678Z,3268.00
2018-06-19T05:42:37.897Z,3280.00
2018-06-19T05:43:38.039Z,3300.00
2018-06-19T05:44:38.222Z,3312.00
2018-06-19T05:45:38.301Z,3328.00
2018-06-19T05:46:38.568Z,3352.00
2018-06-19T05:47:38.690Z,3352.00
2018-06-19T05:48:38.893Z,3376.00
2018-06-19T05:49:39.090Z,3380.00
2018-06-19T05:50:39.227Z,3424.00
2018-06-19T05:51:39.358Z,3440.00
2018-06-19T05:52:39.564Z,3436.00
2018-06-19T05:53:39.789Z,3444.00
2018-06-19T05:54:39.960Z,3468.00
2018-06-19T05:55:40.139Z,3460.00
2018-06-19T05:56:40.314Z,3492.00
2018-06-19T05:57:40.478Z,3540.00
2018-06-19T05:58:40.625Z,3552.00
2018-06-19T05:59:40.834Z,3588.00
2018-06-19T06:00:40.925Z,3588.00
2018-06-19T06:01:41.171Z,3620.00
2018-06-19T06:02:41.279Z,3632.00
2018-06-19T06:03:41.512Z,3668.00
2018-06-19T06:04:41.686Z,3680.00
2018-06-19T06:05:41.841Z,3680.00
2018-06-19T06:06:41.982Z,3668.00
2018-06-19T06:07:42.203Z,3672.00
2018-06-19T06:08:42.377Z,3724.00
2018-06-19T06:09:42.500Z,3720.00
2018-06-19T06:10:42.648Z,3760.00
2018-06-19T06:11:42.955Z,3764.00
2018-06-19T06:12:43.129Z,3584.00
2018-06-19T06:13:43.331Z,3776.00
2018-06-19T06:14:43.449Z,3812.00
2018-06-19T06:15:43.783Z,3868.00
2018-06-19T06:16:44.151Z,3904.00
2018-06-19T06:17:44.073Z,3952.00
2018-06-19T06:18:44.191Z,3960.00
2018-06-19T06:19:45.281Z,3968.00
2018-06-19T06:20:45.279Z,4000.00
2018-06-19T06:21:44.787Z,4056.00
2018-06-19T06:22:44.887Z,4112.00
2018-06-19T06:23:45.280Z,4116.00
2018-06-19T06:25:03.728Z,4112.00
2018-06-19T06:25:48.019Z,4072.00
2018-06-19T06:26:51.560Z,4176.00
2018-06-19T06:27:55.402Z,4244.00
2018-06-19T06:28:51.215Z,4316.00
2018-06-19T06:29:48.764Z,4404.00
2018-06-19T06:30:47.648Z,4492.00
2018-06-19T06:31:46.995Z,4672.00
2018-06-19T06:32:48.335Z,4888.00
2018-06-19T06:33:47.781Z,5088.00
2018-06-19T06:34:48.541Z,5656.00
2018-06-19T06:37:59.071Z,8120.00
2018-06-19T06:39:02.535Z,8408.00
2018-06-19T06:40:02.934Z,8348.00
2018-06-19T06:41:00.759Z,8496.00
2018-06-19T06:41:59.670Z,8484.00
2018-06-19T06:43:00.156Z,8380.00
2018-06-19T06:44:00.031Z,8300.00
2018-06-19T06:45:00.232Z,8184.00
2018-06-19T06:46:00.587Z,8064.00
2018-06-19T06:47:00.909Z,7980.00
2018-06-19T06:48:00.865Z,7992.00
2018-06-19T06:49:01.171Z,8008.00
2018-06-19T06:50:01.245Z,8000.00
2018-06-19T06:51:01.460Z,8192.00
2018-06-19T06:52:01.784Z,8480.00
2018-06-19T06:53:01.873Z,8548.00
2018-06-19T06:54:02.131Z,8512.00
2018-06-19T06:55:02.141Z,8488.00
2018-06-19T06:56:02.454Z,8628.00
2018-06-19T06:57:02.669Z,8768.00
2018-06-19T06:58:02.799Z,8668.00
2018-06-19T06:59:03.176Z,8688.00
2018-06-19T07:00:03.276Z,8980.00
2018-06-19T07:01:03.666Z,8804.00
2018-06-19T07:02:03.691Z,8928.00
2018-06-19T07:03:03.923Z,8932.00
2018-06-19T07:04:04.103Z,9184.00
2018-06-19T07:05:05.285Z,8988.00
2018-06-19T07:06:06.626Z,9896.00
2018-06-19T07:07:05.915Z,9696.00
2018-06-19T07:08:05.891Z,9624.00
2018-06-19T07:09:08.544Z,10700.00
2018-06-19T07:15:44.165Z,9984.00
2018-06-19T07:16:44.317Z,9852.00
2018-06-19T07:17:38.390Z,9900.00
2018-06-19T07:19:37.235Z,10236.00
2018-06-19T07:20:39.502Z,10132.00
2018-06-19T07:21:37.487Z,10088.00
2018-06-19T07:22:37.961Z,10204.00
2018-06-19T07:23:37.828Z,10316.00
2018-06-19T07:24:38.163Z,10384.00
2018-06-19T07:25:39.983Z,10452.00
2018-06-19T07:26:38.453Z,10680.00
2018-06-19T07:29:39.171Z,11000.00
2018-06-19T07:30:39.797Z,10936.00
2018-06-19T07:31:39.626Z,10884.00
2018-06-19T07:32:39.639Z,10600.00
2018-06-19T07:33:41.445Z,10236.00
2018-06-19T07:35:40.211Z,9968.00
2018-06-19T07:36:40.854Z,10212.00
2018-06-19T07:37:40.668Z,10632.00
2018-06-19T07:38:39.733Z,10836.00
2018-06-19T07:39:38.221Z,10848.00
2018-06-19T07:40:39.163Z,10792.00
2018-06-19T07:41:38.613Z,10740.00
2018-06-19T07:42:38.843Z,10612.00
2018-06-19T07:43:39.846Z,10596.00
2018-06-19T07:44:39.304Z,10728.00
2018-06-19T07:45:39.650Z,11004.00
2018-06-19T07:46:39.637Z,11204.00
2018-06-19T07:47:39.973Z,11192.00
2018-06-19T07:48:40.158Z,11080.00
2018-06-19T07:49:40.355Z,10952.00
2018-06-19T07:50:40.530Z,11016.00
2018-06-19T07:51:40.728Z,11316.00
2018-06-19T07:52:41.388Z,11652.00
2018-06-19T07:53:41.044Z,12032.00
2018-06-19T07:54:41.600Z,12292.00
2018-06-19T07:55:41.864Z,12672.00
2018-06-19T07:56:41.726Z,13164.00
2018-06-19T07:57:41.981Z,13548.00
2018-06-19T07:58:44.431Z,14032.00
2018-06-19T07:59:42.951Z,14548.00
2018-06-19T08:00:42.577Z,15232.00
2018-06-19T08:01:42.646Z,14912.00
2018-06-19T08:02:42.979Z,14708.00
2018-06-19T08:03:53.791Z,14652.00
2018-06-19T08:04:43.682Z,14912.00
2018-06-19T08:05:43.570Z,14728.00
2018-06-19T08:06:43.949Z,15072.00
2018-06-19T08:07:43.832Z,15328.00
2018-06-19T08:08:44.313Z,15232.00
2018-06-19T08:09:44.930Z,15456.00
2018-06-19T08:10:45.802Z,15328.00
2018-06-19T08:11:44.412Z,15264.00
2018-06-19T08:12:45.424Z,14976.00
2018-06-19T08:15:35.847Z,14804.00
2018-06-19T08:19:58.783Z,14752.00
2018-06-19T08:25:08.722Z,14028.00
2018-06-19T08:25:56.033Z,13856.00
2018-06-19T08:30:04.791Z,12932.00
2018-06-19T08:30:58.566Z,12664.00
2018-06-19T08:31:55.333Z,12316.00
2018-06-19T08:32:59.418Z,12068.00
2018-06-19T08:34:09.872Z,12060.00
2018-06-19T08:34:55.007Z,12220.00
2018-06-19T08:35:54.030Z,12644.00
2018-06-19T08:36:53.858Z,13192.00
2018-06-19T08:37:54.113Z,13712.00
2018-06-19T08:38:54.366Z,14224.00
2018-06-19T08:39:54.306Z,14728.00
2018-06-19T08:40:54.654Z,15064.00
2018-06-19T08:41:54.666Z,15360.00
2018-06-19T08:42:54.815Z,14884.00
2018-06-19T08:43:55.237Z,14220.00
2018-06-19T08:44:55.262Z,13852.00
2018-06-19T08:45:55.519Z,14348.00
2018-06-19T08:46:55.827Z,14948.00
2018-06-19T08:47:55.875Z,15060.00
2018-06-19T08:48:56.079Z,15056.00
2018-06-19T08:49:56.966Z,15552.00
2018-06-19T08:50:56.281Z,15936.00
2018-06-19T08:51:56.944Z,15936.00
2018-06-19T08:52:57.050Z,15616.00
2018-06-19T08:53:56.808Z,15328.00
2018-06-19T08:54:58.297Z,14824.00
2018-06-19T08:55:57.052Z,14508.00
2018-06-19T08:56:57.253Z,14512.00
2018-06-19T08:58:00.505Z,14980.00
2018-06-19T08:58:57.553Z,16096.00
2018-06-19T08:59:57.645Z,16992.00
2018-06-19T09:00:58.240Z,17216.00
2018-06-19T09:01:58.061Z,17280.00
2018-06-19T09:02:58.357Z,17600.00
2018-06-19T09:03:59.132Z,18240.00
2018-06-19T09:04:58.753Z,18560.00
2018-06-19T09:05:59.476Z,18144.00
2018-06-19T09:06:59.022Z,17536.00
2018-06-19T09:08:01.356Z,17376.00
2018-06-19T09:08:59.336Z,17472.00
2018-06-19T09:09:59.901Z,17344.00
2018-06-19T09:10:59.499Z,17632.00
2018-06-19T09:12:00.304Z,17472.00
2018-06-19T09:13:01.315Z,17632.00
2018-06-19T09:14:00.145Z,18176.00
2018-06-19T09:15:00.589Z,18720.00
2018-06-19T09:16:00.462Z,18656.00
2018-06-19T09:17:01.318Z,19360.00
2018-06-19T09:18:00.869Z,19392.00
2018-06-19T09:19:01.547Z,19424.00
2018-06-19T09:20:04.997Z,19520.00
2018-06-19T09:21:01.589Z,20672.00
2018-06-19T09:22:05.159Z,20192.00
2018-06-19T09:23:01.985Z,19360.00
2018-06-19T09:24:02.242Z,18624.00
2018-06-19T09:25:02.226Z,18048.00
2018-06-19T09:26:02.584Z,18240.00
2018-06-19T09:27:04.824Z,18336.00
2018-06-19T09:28:03.121Z,18048.00
2018-06-19T09:29:02.977Z,17056.00
2018-06-19T09:30:03.617Z,16512.00
2018-06-19T09:31:05.242Z,16256.00
2018-06-19T09:32:05.844Z,16832.00
2018-06-19T09:33:06.520Z,17216.00
2018-06-19T09:41:20.911Z,16256.00
2018-06-19T09:42:22.208Z,17056.00
2018-06-19T09:45:07.710Z,17120.00
2018-06-19T09:46:17.866Z,16576.00
2018-06-19T10:03:11.069Z,16992.00
2018-06-19T10:05:12.820Z,17184.00
2018-06-19T10:06:18.520Z,17536.00
2018-06-19T10:07:12.939Z,18592.00
2018-06-19T10:08:30.318Z,19904.00
2018-06-19T10:09:14.504Z,20512.00
2018-06-19T10:10:17.417Z,22048.00
2018-06-19T12:04:59.470Z,3844.00
2018-06-19T12:15:06.003Z,11144.00
2018-06-19T12:21:50.300Z,8152.00
2018-06-19T12:22:53.115Z,6944.00
2018-06-19T12:30:29.258Z,9132.00
2018-06-19T12:31:05.294Z,10604.00
2018-06-19T12:33:23.982Z,10964.00
2018-06-19T12:34:09.952Z,10724.00
2018-06-19T12:36:08.148Z,8916.00
2018-06-19T12:37:06.647Z,8152.00
2018-06-19T12:38:07.818Z,7620.00
2018-06-19T12:39:07.351Z,7572.00
2018-06-19T12:40:07.008Z,7940.00
2018-06-19T12:41:05.478Z,8576.00
2018-06-19T12:42:05.146Z,9480.00
2018-06-19T12:43:05.634Z,10108.00
2018-06-19T12:44:05.960Z,10920.00
2018-06-19T12:45:05.841Z,11468.00
2018-06-19T12:46:05.873Z,11516.00
2018-06-19T12:47:06.073Z,11240.00
2018-06-19T12:48:06.266Z,10696.00
2018-06-19T12:49:06.462Z,9996.00
2018-06-19T12:50:06.869Z,9272.00
2018-06-19T12:51:07.130Z,8616.00
2018-06-19T12:52:07.072Z,8120.00
2018-06-19T12:53:07.235Z,7772.00
2018-06-19T12:54:07.522Z,7608.00
2018-06-19T12:55:07.532Z,7532.00
2018-06-19T12:56:07.819Z,7492.00
2018-06-19T12:57:07.970Z,7612.00
2018-06-19T12:58:08.059Z,7852.00
2018-06-19T12:59:08.367Z,8300.00
2018-06-19T13:00:08.610Z,8788.00
2018-06-19T13:01:08.676Z,9736.00
2018-06-19T13:02:08.888Z,9960.00
2018-06-19T13:03:09.182Z,9124.00
2018-06-19T13:04:09.205Z,8592.00
2018-06-19T13:05:09.384Z,8108.00
2018-06-19T13:06:09.639Z,7580.00
2018-06-19T13:07:09.772Z,7028.00
2018-06-19T13:08:09.975Z,6460.00
2018-06-19T13:09:10.125Z,5904.00
2018-06-19T13:10:10.360Z,5424.00
2018-06-19T13:11:10.600Z,5008.00
2018-06-19T13:12:10.656Z,4648.00
2018-06-19T13:13:10.878Z,4332.00
2018-06-19T13:14:11.034Z,4116.00
2018-06-19T13:15:11.837Z,4016.00
2018-06-19T13:16:11.401Z,4028.00
2018-06-19T13:17:11.677Z,4040.00
2018-06-19T13:18:11.899Z,4040.00
2018-06-19T13:19:11.872Z,3880.00
2018-06-19T13:20:12.082Z,3716.00
2018-06-19T13:21:12.279Z,3572.00
2018-06-19T13:22:12.530Z,3388.00
2018-06-19T13:23:12.752Z,3164.00
2018-06-19T13:24:12.951Z,2920.00
2018-06-19T13:25:12.983Z,2708.00
2018-06-19T13:26:14.343Z,2600.00
2018-06-19T13:27:13.982Z,2572.00
2018-06-19T13:28:13.631Z,2652.00
2018-06-19T13:29:13.832Z,2812.00
2018-06-19T13:30:14.267Z,3040.00
2018-06-19T13:31:14.044Z,3320.00
2018-06-19T13:32:15.581Z,3620.00
2018-06-19T13:35:39.219Z,4424.00
2018-06-19T13:37:27.243Z,4672.00
2018-06-19T13:37:51.705Z,4924.00
2018-06-19T13:38:37.416Z,5116.00
2018-06-19T13:39:37.525Z,5312.00
2018-06-19T13:41:42.543Z,5716.00
2018-06-19T13:42:32.585Z,5960.00
2018-06-19T13:43:30.765Z,6340.00
2018-06-19T13:44:32.191Z,6812.00
2018-06-19T13:45:28.564Z,7448.00
2018-06-19T13:46:28.697Z,8192.00
2018-06-19T13:47:28.435Z,9192.00
2018-06-19T13:48:28.578Z,11036.00
2018-06-19T13:49:28.491Z,12232.00
2018-06-19T13:50:28.933Z,12380.00
2018-06-19T13:51:29.196Z,11788.00
2018-06-19T13:52:29.309Z,10844.00
2018-06-19T13:53:29.226Z,9776.00
2018-06-19T13:54:29.706Z,8772.00
2018-06-19T13:55:29.665Z,7924.00
2018-06-19T13:56:29.858Z,7172.00
2018-06-19T13:57:29.946Z,6512.00
2018-06-19T13:58:30.432Z,5908.00
2018-06-19T13:59:30.448Z,5472.00
2018-06-19T14:00:30.681Z,5316.00
2018-06-19T14:01:32.531Z,5368.00
2018-06-19T14:02:31.440Z,5436.00
2018-06-19T14:03:31.760Z,5500.00
2018-06-19T14:04:32.977Z,5624.00
2018-06-19T14:05:33.376Z,5772.00
2018-06-19T14:06:31.940Z,6000.00
2018-06-19T14:07:32.152Z,6372.00
2018-06-19T14:08:32.149Z,6816.00
2018-06-19T14:09:32.297Z,7296.00
2018-06-19T14:10:32.491Z,7872.00
2018-06-19T14:11:32.791Z,8460.00
2018-06-19T14:12:33.345Z,9084.00
2018-06-19T14:13:33.135Z,9740.00
2018-06-19T14:14:33.138Z,10528.00
2018-06-19T14:15:34.211Z,11472.00
2018-06-19T14:16:33.897Z,11720.00
2018-06-19T14:17:33.982Z,11884.00
2018-06-19T14:18:34.090Z,11884.00
2018-06-19T14:19:34.184Z,11800.00
2018-06-19T14:20:34.210Z,11600.00
2018-06-19T14:21:34.644Z,11316.00
2018-06-19T14:22:34.730Z,10904.00
2018-06-19T14:23:34.803Z,10572.00
2018-06-19T14:24:34.969Z,10452.00
2018-06-19T14:25:35.450Z,10340.00
2018-06-19T14:26:35.479Z,10100.00
2018-06-19T14:27:36.489Z,9932.00
2018-06-19T14:28:37.931Z,9940.00
2018-06-19T14:29:36.015Z,9968.00
2018-06-19T14:30:36.495Z,9836.00
2018-06-19T14:31:37.077Z,9664.00
2018-06-19T14:32:38.400Z,9452.00
2018-06-19T14:37:52.982Z,8884.00
2018-06-19T14:38:50.163Z,8928.00
2018-06-19T14:39:45.339Z,8952.00
2018-06-19T14:40:56.363Z,8872.00
2018-06-19T14:41:42.067Z,8752.00
2018-06-19T14:42:41.027Z,8708.00
2018-06-19T14:43:41.467Z,8688.00
2018-06-19T14:44:40.934Z,8724.00
2018-06-19T14:45:38.900Z,8860.00
2018-06-19T14:46:38.704Z,8972.00
2018-06-19T14:47:39.289Z,9248.00
2018-06-19T14:48:39.303Z,9656.00
2018-06-19T14:49:40.481Z,10048.00
2018-06-19T16:35:40.649Z,5292.00
2018-06-19T16:36:40.651Z,5128.00
2018-06-19T16:42:40.981Z,5528.00
2018-06-19T16:45:09.375Z,5612.00
2018-06-19T16:45:47.076Z,5668.00
2018-06-19T16:46:40.844Z,5824.00
2018-06-19T16:47:45.593Z,6168.00
2018-06-19T16:48:40.703Z,6308.00
2018-06-19T16:49:40.105Z,6344.00
2018-06-19T16:50:40.089Z,6348.00
2018-06-19T16:51:45.174Z,6360.00
2018-06-19T17:15:35.171Z,6476.00
2018-06-19T17:33:16.498Z,4984.00
2018-06-19T17:33:53.309Z,4972.00
2018-06-19T17:37:55.696Z,4772.00
2018-06-19T17:41:57.131Z,4716.00
2018-06-19T18:17:12.920Z,2220.00
2018-06-19T18:18:16.298Z,2244.00
2018-06-19T18:19:21.159Z,2236.00
2018-06-19T18:20:12.257Z,2208.00
2018-06-19T18:21:13.306Z,2176.00
2018-06-19T18:22:12.659Z,2160.00
2018-06-19T18:23:12.761Z,2132.00
2018-06-19T18:24:13.235Z,2092.00
2018-06-19T18:25:14.406Z,2068.00
2018-06-19T18:27:22.039Z,2024.00
2018-06-19T18:28:16.025Z,1976.00
2018-06-19T18:29:12.923Z,1936.00
2018-06-19T18:30:13.024Z,1912.00
2018-06-19T18:31:12.280Z,1888.00
2018-06-19T18:32:12.046Z,1876.00
2018-06-19T18:33:12.269Z,1848.00
2018-06-19T18:34:15.204Z,1844.00
2018-06-19T18:39:14.186Z,1740.00
2018-06-19T18:40:20.049Z,1720.00
2018-06-19T18:42:13.245Z,1676.00
2018-06-19T18:43:19.905Z,1648.00
2018-06-19T18:44:36.421Z,1628.00
2018-06-19T18:45:13.360Z,1596.00
2018-06-19T18:46:14.276Z,1580.00
2018-06-19T18:47:14.537Z,1564.00
2018-06-19T18:48:14.251Z,1544.00
2018-06-19T18:49:14.364Z,1516.00
2018-06-19T18:50:14.518Z,1484.00
2018-06-19T18:51:15.406Z,1448.00
2018-06-19T18:52:23.956Z,1412.00
2018-06-19T18:53:21.296Z,1380.00
2018-06-19T18:54:17.905Z,1344.00
2018-06-19T18:56:15.761Z,1292.00
2018-06-19T18:57:18.240Z,1268.00
2018-06-19T18:58:17.849Z,1240.00
2018-06-19T18:59:16.299Z,1216.00
2018-06-19T19:00:18.919Z,1200.00
2018-06-19T19:01:18.412Z,1188.00
2018-06-19T19:02:18.555Z,1176.00
2018-06-19T19:04:16.431Z,1152.00
2018-06-19T19:05:16.566Z,1132.00
2018-06-19T19:06:19.183Z,1096.00
2018-06-19T19:07:18.071Z,1060.00
2018-06-19T19:08:18.019Z,1012.00
2018-06-19T19:10:23.802Z,916.00
2018-06-19T19:11:20.790Z,872.00
2018-06-19T19:16:52.463Z,700.00
2018-06-19T19:19:52.480Z,604.00
2018-06-19T19:20:52.637Z,576.00
2018-06-19T19:21:52.797Z,552.00
2018-06-19T19:22:52.920Z,524.00
2018-06-19T19:23:53.220Z,504.00
2018-06-19T19:24:53.273Z,476.00
2018-06-19T19:27:54.014Z,412.00
2018-06-19T19:29:21.712Z,392.00
2018-06-19T19:51:53.259Z,56.00
2018-06-19T19:52:54.298Z,52.00
2018-06-19T19:54:57.062Z,44.00
2018-06-19T19:56:07.824Z,36.00
2018-06-19T19:57:17.717Z,32.00
2018-06-19T20:01:19.416Z,20.00
2018-06-19T20:02:19.697Z,16.00
2018-06-19T20:03:23.078Z,16.00
2018-06-19T20:05:24.224Z,12.00
2018-06-19T20:06:20.767Z,8.00
2018-06-19T20:07:22.039Z,8.00
2018-06-19T20:08:21.487Z,8.00
2018-06-19T20:09:20.607Z,8.00
2018-06-19T20:11:20.610Z,4.00
2018-06-19T20:12:21.383Z,4.00
2018-06-19T20:14:22.752Z,4.00
2018-06-19T20:15:22.378Z,4.00
2018-06-19T20:16:22.398Z,4.00
2018-06-19T20:18:21.926Z,4.00
2018-06-19T20:19:22.368Z,4.00
2018-06-19T20:20:22.327Z,4.00
2018-06-19T20:21:22.902Z,0.00
2018-06-19T20:22:24.628Z,0.00
2018-06-19T20:24:26.158Z,0.00
2018-06-19T20:25:26.296Z,0.00
2018-06-19T20:27:26.746Z,0.00
2018-06-19T20:28:28.461Z,0.00
2018-06-19T20:29:26.842Z,0.00
2018-06-19T20:30:24.275Z,0.00
2018-06-19T20:33:56.746Z,0.00
2018-06-19T20:34:56.098Z,0.00
2018-06-19T20:35:57.155Z,0.00
2018-06-19T20:36:57.131Z,0.00
2018-06-19T20:37:56.990Z,0.00
2018-06-19T20:38:57.220Z,0.00
2018-06-19T20:39:58.065Z,0.00
2018-06-19T20:42:31.440Z,0.00
2018-06-19T20:43:31.539Z,0.00
2018-06-19T20:44:32.128Z,0.00
2018-06-19T20:45:32.839Z,0.00
2018-06-19T20:46:32.196Z,0.00
2018-06-19T20:48:32.224Z,0.00
2018-06-19T20:49:34.086Z,0.00
2018-06-19T20:52:34.307Z,0.00
2018-06-19T20:54:32.720Z,0.00
2018-06-19T20:55:33.501Z,0.00
2018-06-19T20:56:34.269Z,0.00
2018-06-19T20:57:34.110Z,0.00
2018-06-19T20:58:34.322Z,0.00
2018-06-19T20:59:36.371Z,0.00
2018-06-19T21:00:34.216Z,0.00
2018-06-19T21:01:36.512Z,0.00
2018-06-19T21:02:35.575Z,0.00
2018-06-19T21:03:34.551Z,0.00
2018-06-19T21:04:35.119Z,0.00
2018-06-19T21:05:36.000Z,0.00
2018-06-19T21:06:35.814Z,0.00
2018-06-19T21:07:39.474Z,0.00
2018-06-19T21:08:36.264Z,0.00
2018-06-19T21:09:36.679Z,0.00
2018-06-19T21:10:35.607Z,0.00
2018-06-19T21:11:37.128Z,0.00
2018-06-19T21:12:36.304Z,0.00
2018-06-19T21:14:36.597Z,0.00
2018-06-19T21:15:38.650Z,0.00
2018-06-19T21:16:35.845Z,0.00
2018-06-19T21:17:41.063Z,0.00
2018-06-19T21:18:38.629Z,0.00
2018-06-19T21:19:38.416Z,0.00
2018-06-19T21:20:37.303Z,0.00
2018-06-19T21:21:37.637Z,0.00
2018-06-19T21:22:38.313Z,0.00
2018-06-19T21:23:38.039Z,0.00
2018-06-19T21:24:38.724Z,0.00
2018-06-19T21:25:37.949Z,0.00
2018-06-19T21:26:37.699Z,0.00
2018-06-19T21:27:35.875Z,0.00
2018-06-19T21:28:36.178Z,0.00
2018-06-19T21:29:36.299Z,0.00
2018-06-19T21:30:36.481Z,0.00
2018-06-19T21:31:36.693Z,0.00
2018-06-19T21:32:37.473Z,0.00
2018-06-19T21:33:37.408Z,0.00
2018-06-19T21:34:37.276Z,0.00
2018-06-19T21:35:38.564Z,0.00
2018-06-19T21:36:37.609Z,0.00
2018-06-19T21:37:39.440Z,0.00
2018-06-19T21:38:39.187Z,0.00
2018-06-19T21:39:38.654Z,0.00
2018-06-19T21:40:38.645Z,0.00
2018-06-19T21:41:39.902Z,0.00
2018-06-19T21:42:39.121Z,0.00
2018-06-19T21:43:39.043Z,0.00
2018-06-19T21:44:40.322Z,0.00
2018-06-19T21:45:39.722Z,0.00
2018-06-19T21:46:39.703Z,0.00
2018-06-19T21:47:40.239Z,0.00
2018-06-19T21:48:40.130Z,0.00
2018-06-19T21:49:40.147Z,0.00
